Latest Weather Observations for Wattamolla

IDN60801

Issued at 6:35 pm EST Thursday 28 August 2014 (issued every 30 minutes, with the page automatically refreshed every 10 minutes)

About weather observations | Map of weather stations | Latest weather observations for NSW | Other Formats
Station Details ID: 066208 Name: WATTAMOLLA AWS Lat: -34.14 Lon: 151.12 Height: 44.0 m
Data from the previous 72 hours. | See also: Recent months for locations in New South Wales
Date/Time
EST
Temp
°C
App
Temp
°C
Dew
Point
Rel
Hum
%
Delta-T
°C
Wind Press
QNH
hPa
Press
MSL
hPa
Rain
since 9 am
mm
Dir
 
Spd
km/h
Gust
km/h
Spd
kts
Gust
kts
28/06:30pm - - - - - S 37 46 20 25 - - -
28/06:00pm - - - - - SSE 37 50 20 27 - - -
28/05:30pm - - - - - SSE 37 48 20 26 - - -
28/05:00pm - - - - - SSE 35 48 19 26 - - -
28/04:30pm - - - - - S 35 48 19 26 - - -
28/04:00pm - - - - - SSE 37 52 20 28 - - -
28/03:30pm - - - - - SSE 39 52 21 28 - - -
28/03:16pm - - - - - SSE 37 56 20 30 - - -
28/03:00pm - - - - - SSE 41 56 22 30 - - -
28/02:30pm - - - - - S 37 54 20 29 - - -
28/02:00pm - - - - - S 35 50 19 27 - - -
28/01:30pm - - - - - S 41 52 22 28 - - -
28/01:00pm - - - - - S 35 50 19 27 - - -
28/12:30pm - - - - - S 37 48 20 26 - - -
28/12:00pm - - - - - S 44 54 24 29 - - -
28/11:30am - - - - - SSE 41 52 22 28 - - -
28/11:00am - - - - - S 39 46 21 25 - - -
28/10:30am - - - - - SSE 41 52 22 28 - - -
28/10:00am - - - - - S 43 54 23 29 - - -
28/09:30am - - - - - S 43 54 23 29 - - -
28/09:00am - - - - - S 44 54 24 29 - - -
28/08:30am - - - - - S 35 50 19 27 - - -
28/08:06am - - - - - S 28 57 15 31 - - -
28/08:00am - - - - - S 24 39 13 21 - - -
28/07:30am - - - - - S 37 44 20 24 - - -
28/07:06am - - - - - S 43 61 23 33 - - -
28/07:00am - - - - - S 41 56 22 30 - - -
28/06:30am - - - - - S 50 63 27 34 - - -
28/06:00am - - - - - S 50 65 27 35 - - -
28/05:30am - - - - - S 50 61 27 33 - - -
28/05:11am - - - - - S 39 52 21 28 - - -
28/05:00am - - - - - S 19 28 10 15 - - -
28/04:46am - - - - - SE 30 48 16 26 - - -
28/04:42am - - - - - SE 39 48 21 26 - - -
28/04:38am - - - - - S 33 52 18 28 - - -
28/04:30am - - - - - S 28 44 15 24 - - -
28/04:00am - - - - - S 44 59 24 32 - - -
28/03:30am - - - - - S 35 54 19 29 - - -
28/03:00am - - - - - S 46 56 25 30 - - -
28/02:30am - - - - - S 43 56 23 30 - - -
28/02:00am - - - - - SSE 44 56 24 30 - - -
28/01:30am - - - - - SSE 43 57 23 31 - - -
28/01:00am - - - - - SSE 48 72 26 39 - - -
28/12:30am - - - - - S 48 57 26 31 - - -
28/12:00am - - - - - SSE 46 56 25 30 - - -
 
Date/Time
EST
Temp
°C
App
Temp
°C
Dew
Point
Rel
Hum
%
Delta-T
°C
Wind Press
QNH
hPa
Press
MSL
hPa
Rain
since 9 am
mm
Dir
 
Spd
km/h
Gust
km/h
Spd
kts
Gust
kts
27/11:30pm - - - - - S 46 57 25 31 - - -
27/11:00pm - - - - - S 52 63 28 34 - - -
27/10:30pm - - - - - S 52 61 28 33 - - -
27/10:00pm - - - - - SSE 50 61 27 33 - - -
27/09:30pm - - - - - S 50 63 27 34 - - -
27/09:00pm - - - - - S 50 63 27 34 - - -
27/08:52pm - - - - - S 39 57 21 31 - - -
27/08:30pm - - - - - S 50 57 27 31 - - -
27/08:00pm - - - - - S 50 61 27 33 - - -
27/07:30pm - - - - - S 46 57 25 31 - - -
27/07:00pm - - - - - S 52 65 28 35 - - -
27/06:45pm - - - - - S 48 67 26 36 - - -
27/06:30pm - - - - - S 54 67 29 36 - - -
27/06:00pm - - - - - SSE 54 65 29 35 - - -
27/05:30pm - - - - - SSE 50 65 27 35 - - -
27/05:07pm - - - - - S 48 70 26 38 - - -
27/05:00pm - - - - - SSE 52 63 28 34 - - -
27/04:30pm - - - - - SSE 50 65 27 35 - - -
27/04:00pm - - - - - SSE 50 61 27 33 - - -
27/03:30pm - - - - - SSE 50 61 27 33 - - -
27/03:00pm - - - - - SSE 48 61 26 33 - - -
27/02:30pm - - - - - SSE 46 61 25 33 - - -
27/02:11pm - - - - - S 44 63 24 34 - - -
27/02:00pm - - - - - SSE 43 56 23 30 - - -
27/01:32pm - - - - - S 46 65 25 35 - - -
27/01:30pm - - - - - S 46 59 25 32 - - -
27/01:00pm - - - - - SSE 48 63 26 34 - - -
27/12:30pm - - - - - S 46 59 25 32 - - -
27/12:00pm - - - - - S 48 57 26 31 - - -
27/11:30am - - - - - S 50 59 27 32 - - -
27/11:00am - - - - - SSE 44 59 24 32 - - -
27/10:30am - - - - - SSE 50 59 27 32 - - -
27/10:00am - - - - - S 46 59 25 32 - - -
27/09:30am - - - - - SSE 46 59 25 32 - - -
27/09:00am - - - - - SSE 48 61 26 33 - - -
27/08:30am - - - - - SSE 48 63 26 34 - - -
27/08:00am - - - - - SSE 48 63 26 34 - - -
27/07:30am - - - - - S 48 61 26 33 - - -
27/07:26am - - - - - SSE 28 59 15 32 - - -
27/07:00am - - - - - SSE 33 37 18 20 - - -
27/06:49am - - - - - SE 19 26 10 14 - - -
27/06:30am - - - - - S 39 54 21 29 - - -
27/06:00am - - - - - S 50 72 27 39 - - -
27/05:32am - - - - - SSE 48 69 26 37 - - -
27/05:30am - - - - - SSE 48 61 26 33 - - -
27/05:00am - - - - - S 41 67 22 36 - - -
27/04:52am - - - - - S 41 67 22 36 - - -
27/04:30am - - - - - S 52 65 28 35 - - -
27/04:04am - - - - - S 46 65 25 35 - - -
27/04:00am - - - - - S 44 61 24 33 - - -
27/03:35am - - - - - SSE 35 54 19 29 - - -
27/03:30am - - - - - SSE 39 54 21 29 - - -
27/03:22am - - - - - SSE 44 63 24 34 - - -
27/03:00am - - - - - SSE 48 63 26 34 - - -
27/02:30am - - - - - SSE 50 69 27 37 - - -
27/02:08am - - - - - SSE 48 67 26 36 - - -
27/02:00am - - - - - S 48 65 26 35 - - -
27/01:57am - - - - - S 46 65 25 35 - - -
27/01:47am - - - - - SSE 48 59 26 32 - - -
27/01:43am - - - - - S 43 54 23 29 - - -
27/01:30am - - - - - SSE 39 52 21 28 - - -
27/01:00am - - - - - SE 43 52 23 28 - - -
27/12:30am - - - - - SSE 44 52 24 28 - - -
27/12:00am - - - - - SSE 46 56 25 30 - - -
 
Date/Time
EST
Temp
°C
App
Temp
°C
Dew
Point
Rel
Hum
%
Delta-T
°C
Wind Press
QNH
hPa
Press
MSL
hPa
Rain
since 9 am
mm
Dir
 
Spd
km/h
Gust
km/h
Spd
kts
Gust
kts
26/11:30pm - - - - - SSE 50 56 27 30 - - -
26/11:00pm - - - - - SSE 52 61 28 33 - - -
26/10:30pm - - - - - SSE 46 57 25 31 - - -
26/10:22pm - - - - - SSE 37 52 20 28 - - -
26/10:00pm - - - - - ENE 20 35 11 19 - - -
26/09:41pm - - - - - E 28 48 15 26 - - -
26/09:38pm - - - - - SSE 54 78 29 42 - - -
26/09:30pm - - - - - SSE 50 63 27 34 - - -
26/09:15pm - - - - - S 41 59 22 32 - - -
26/09:08pm - - - - - S 37 48 20 26 - - -
26/09:00pm - - - - - SSE 59 67 32 36 - - -
26/08:30pm - - - - - SSE 43 59 23 32 - - -
26/08:11pm - - - - - SSE 52 70 28 38 - - -
26/08:00pm - - - - - SSE 59 74 32 40 - - -
26/07:52pm - - - - - SSE 65 72 35 39 - - -
26/07:39pm - - - - - SSE 43 61 23 33 - - -
26/07:30pm - - - - - SSE 48 61 26 33 - - -
26/07:23pm - - - - - SSE 57 76 31 41 - - -
26/07:15pm - - - - - SSE 61 70 33 38 - - -
26/07:04pm - - - - - SSE 32 54 17 29 - - -
26/07:00pm - - - - - SSE 28 37 15 20 - - -
26/06:30pm - - - - - SE 17 24 9 13 - - -
26/06:00pm - - - - - S 32 41 17 22 - - -
26/05:30pm - - - - - SE 41 52 22 28 - - -
26/05:00pm - - - - - SSE 33 43 18 23 - - -
26/04:30pm - - - - - S 19 26 10 14 - - -
26/04:00pm - - - - - SSE 41 52 22 28 - - -
26/03:30pm - - - - - SSE 37 48 20 26 - - -
26/03:00pm - - - - - S 17 32 9 17 - - -
26/02:51pm - - - - - S 30 48 16 26 - - -
26/02:30pm - - - - - S 22 35 12 19 - - -
26/02:00pm - - - - - SW 19 28 10 15 - - -
26/01:30pm - - - - - SSW 19 28 10 15 - - -
26/01:00pm - - - - - S 24 35 13 19 - - -
26/12:30pm - - - - - S 30 33 16 18 - - -
26/12:00pm - - - - - S 26 30 14 16 - - -
26/11:30am - - - - - S 28 35 15 19 - - -
26/11:24am - - - - - S 28 32 15 17 - - -
26/11:00am - - - - - S 9 13 5 7 - - -
26/10:30am - - - - - NW 4 6 2 3 - - -
26/10:00am - - - - - N 7 9 4 5 - - -
26/09:30am - - - - - NE 17 26 9 14 - - -
26/09:00am - - - - - E 13 19 7 10 - - -
26/08:30am - - - - - ENE 17 26 9 14 - - -
26/08:00am - - - - - ENE 17 28 9 15 - - -
26/07:30am - - - - - E 22 32 12 17 - - -
26/07:00am - - - - - SE 20 32 11 17 - - -
26/06:30am - - - - - NE 7 11 4 6 - - -
26/06:00am - - - - - E 4 7 2 4 - - -
26/05:30am - - - - - NNE 6 9 3 5 - - -
26/05:00am - - - - - NW 11 13 6 7 - - -
26/04:30am - - - - - WNW 13 15 7 8 - - -
26/04:00am - - - - - NW 15 17 8 9 - - -
26/03:30am - - - - - NNW 9 13 5 7 - - -
26/03:00am - - - - - NW 13 17 7 9 - - -
26/02:30am - - - - - WNW 7 11 4 6 - - -
26/02:00am - - - - - NW 11 15 6 8 - - -
26/01:30am - - - - - WNW 13 20 7 11 - - -
26/01:00am - - - - - NW 11 15 6 8 - - -
26/12:30am - - - - - N 13 17 7 9 - - -
26/12:00am - - - - - NNE 11 17 6 9 - - -
 
Date/Time
EST
Temp
°C
App
Temp
°C
Dew
Point
Rel
Hum
%
Delta-T
°C
Wind Press
QNH
hPa
Press
MSL
hPa
Rain
since 9 am
mm
Dir
 
Spd
km/h
Gust
km/h
Spd
kts
Gust
kts
25/11:30pm - - - - - NNE 9 15 5 8 - - -
25/11:00pm - - - - - NNW 9 13 5 7 - - -
25/10:30pm - - - - - NW 13 17 7 9 - - -
25/10:00pm - - - - - N 11 15 6 8 - - -
25/09:30pm - - - - - W 9 11 5 6 - - -
25/09:00pm - - - - - E 7 17 4 9 - - -
25/08:30pm - - - - - NNW 11 11 6 6 - - -
25/08:00pm - - - - - E 9 13 5 7 - - -
25/07:30pm - - - - - SSE 20 26 11 14 - - -
25/07:00pm - - - - - SSE 13 19 7 10 - - -

Other Formats:

Comma delimited format used in spreadsheet applications
http://www.bom.gov.au/fwo/IDN60801/IDN60801.95752.axf

JavaScript Object Notation format (JSON) in row-major order
http://www.bom.gov.au/fwo/IDN60801/IDN60801.95752.json